createdAt,value
2023-01-07T10:36:13.615Z,954.89
2023-01-07T10:37:26.401Z,954.91
2023-01-07T10:38:26.310Z,954.91
2023-01-07T10:39:26.240Z,954.84
2023-01-07T10:40:26.158Z,954.86
2023-01-07T10:41:26.111Z,954.86
2023-01-07T10:42:26.002Z,954.85
2023-01-07T10:43:25.923Z,954.88
2023-01-07T10:44:25.840Z,954.82
2023-01-07T10:45:25.829Z,954.80
2023-01-07T10:46:25.673Z,954.77
2023-01-07T10:47:25.611Z,954.77
2023-01-07T10:48:25.496Z,954.76
2023-01-07T10:49:25.405Z,954.72
2023-01-07T10:50:25.327Z,954.72
2023-01-07T10:51:25.238Z,954.71
2023-01-07T10:52:25.163Z,954.68
2023-01-07T10:53:25.063Z,954.65
2023-01-07T10:54:24.956Z,954.68
2023-01-07T10:55:24.874Z,954.65
2023-01-07T10:56:24.767Z,954.64
2023-01-07T10:57:24.684Z,954.63
2023-01-07T10:58:24.595Z,954.61
2023-01-07T10:59:24.489Z,954.58
2023-01-07T11:00:24.403Z,954.56
2023-01-07T11:01:24.395Z,954.52
2023-01-07T11:02:24.385Z,954.54
2023-01-07T11:03:24.120Z,954.51
2023-01-07T11:04:24.014Z,954.47
2023-01-07T11:05:23.908Z,954.52
2023-01-07T11:06:23.808Z,954.51
2023-01-07T11:07:23.714Z,954.51
2023-01-07T11:08:23.625Z,954.46
2023-01-07T11:09:23.525Z,954.43
2023-01-07T11:10:23.449Z,954.42
2023-01-07T11:11:23.374Z,954.39
2023-01-07T11:12:23.208Z,954.38
2023-01-07T11:13:23.128Z,954.35
2023-01-07T11:14:23.018Z,954.35
2023-01-07T11:15:22.909Z,954.31
2023-01-07T11:16:22.841Z,954.26
2023-01-07T11:17:22.700Z,954.24
2023-01-07T11:18:22.595Z,954.29
2023-01-07T11:19:22.502Z,954.21
2023-01-07T11:20:22.392Z,954.22
2023-01-07T11:21:43.225Z,954.25
2023-01-07T11:22:23.181Z,954.19
2023-01-07T11:23:22.091Z,954.17
2023-01-07T11:24:21.983Z,954.19
2023-01-07T11:25:21.868Z,954.17
2023-01-07T11:26:21.767Z,954.19
2023-01-07T11:27:21.662Z,954.18
2023-01-07T11:28:21.563Z,954.18
2023-01-07T11:29:21.473Z,954.14
2023-01-07T11:31:57.343Z,954.08
2023-01-07T11:32:57.237Z,954.10
2023-01-07T11:34:01.903Z,954.09
2023-01-07T11:34:58.228Z,954.02
2023-01-07T11:35:57.175Z,953.99
2023-01-07T11:36:57.154Z,954.04
2023-01-07T11:37:57.125Z,954.01
2023-01-07T11:38:57.098Z,953.97
2023-01-07T11:39:57.070Z,953.93
2023-01-07T11:40:57.868Z,953.95
2023-01-07T11:41:57.037Z,953.91
2023-01-07T11:42:56.991Z,953.93
2023-01-07T11:43:56.958Z,953.91
2023-01-07T11:44:56.943Z,953.88
2023-01-07T11:46:20.224Z,953.91
2023-01-07T11:46:57.941Z,953.87
2023-01-07T11:47:56.869Z,953.90
2023-01-07T11:48:56.850Z,953.89
2023-01-07T11:49:56.834Z,953.85
2023-01-07T11:50:56.802Z,953.83
2023-01-07T11:51:56.776Z,953.84
2023-01-07T11:52:56.759Z,953.81
2023-01-07T11:53:56.757Z,953.76
2023-01-07T11:54:56.719Z,953.77
2023-01-07T11:55:56.700Z,953.71
2023-01-07T11:56:56.672Z,953.74
2023-01-07T11:58:13.009Z,953.74
2023-01-07T11:58:57.631Z,953.72
2023-01-07T11:59:56.611Z,953.69
2023-01-07T12:00:56.635Z,953.72
2023-01-07T12:01:56.650Z,953.71
2023-01-07T12:02:56.575Z,953.64
2023-01-07T12:03:56.544Z,953.66
2023-01-07T12:04:56.521Z,953.69
2023-01-07T12:05:56.524Z,953.69
2023-01-07T12:06:56.502Z,953.65
2023-01-07T12:07:56.464Z,953.66
2023-01-07T12:08:56.453Z,953.59
2023-01-07T12:09:56.424Z,953.61
2023-01-07T12:10:56.453Z,953.54
2023-01-07T12:11:56.385Z,953.55
2023-01-07T12:12:56.367Z,953.55
2023-01-07T12:13:56.341Z,953.47
2023-01-07T12:14:56.324Z,953.50
2023-01-07T12:15:56.314Z,953.47
2023-01-07T12:16:56.426Z,953.41
2023-01-07T12:17:56.244Z,953.46
2023-01-07T12:18:56.218Z,953.40
2023-01-07T12:19:56.205Z,953.39
2023-01-07T12:20:56.201Z,953.36
2023-01-07T12:21:56.147Z,953.35
2023-01-07T12:22:58.446Z,953.39
2023-01-07T12:23:56.118Z,953.34
2023-01-07T12:24:56.105Z,953.35
2023-01-07T12:25:56.116Z,953.38
2023-01-07T12:26:56.057Z,953.36
2023-01-07T12:27:56.043Z,953.34
2023-01-07T12:28:56.016Z,953.30
2023-01-07T12:29:55.984Z,953.30
2023-01-07T12:30:56.057Z,953.27
2023-01-07T12:31:55.948Z,953.29
2023-01-07T12:32:55.921Z,953.25
2023-01-07T12:33:55.919Z,953.23
2023-01-07T12:34:55.879Z,953.25
2023-01-07T12:35:55.857Z,953.22
2023-01-07T12:36:55.868Z,953.22
2023-01-07T12:37:55.913Z,953.23
2023-01-07T12:38:55.850Z,953.19
2023-01-07T12:39:56.890Z,953.17
2023-01-07T12:40:55.801Z,953.15
2023-01-07T12:41:55.773Z,953.15
2023-01-07T12:42:55.800Z,953.13
2023-01-07T12:43:57.713Z,953.08
2023-01-07T12:44:55.740Z,953.07
2023-01-07T12:45:55.714Z,953.05
2023-01-07T12:46:55.695Z,953.03
2023-01-07T12:47:56.689Z,953.07
2023-01-07T12:48:55.654Z,953.07
2023-01-07T12:49:55.624Z,953.03
2023-01-07T12:50:55.654Z,953.01
2023-01-07T12:51:55.598Z,953.03
2023-01-07T12:52:55.612Z,953.00
2023-01-07T12:53:55.556Z,952.99
2023-01-07T12:54:55.546Z,952.93
2023-01-07T12:55:55.522Z,952.97
2023-01-07T12:56:55.530Z,952.97
2023-01-07T12:57:55.494Z,952.96
2023-01-07T12:58:55.474Z,952.95
2023-01-07T12:59:55.455Z,952.92
2023-01-07T13:00:55.578Z,952.93
2023-01-07T13:01:55.601Z,952.91
2023-01-07T13:02:55.399Z,952.90
2023-01-07T13:03:55.388Z,952.89
2023-01-07T13:04:55.391Z,952.87
2023-01-07T13:05:55.387Z,952.86
2023-01-07T13:06:55.336Z,952.83
2023-01-07T13:07:55.328Z,952.83
2023-01-07T13:08:55.345Z,952.85
2023-01-07T13:09:55.292Z,952.80
2023-01-07T13:10:55.284Z,952.82
2023-01-07T13:11:55.309Z,952.84
2023-01-07T13:12:55.272Z,952.77
2023-01-07T13:13:55.258Z,952.76
2023-01-07T13:14:55.230Z,952.81
2023-01-07T13:15:55.288Z,952.75
2023-01-07T13:16:55.193Z,952.77
2023-01-07T13:17:55.174Z,952.76
2023-01-07T13:18:55.159Z,952.75
2023-01-07T13:19:55.282Z,952.76
2023-01-07T13:20:55.145Z,952.73
2023-01-07T13:21:55.122Z,952.70
2023-01-07T13:22:55.128Z,952.72
2023-01-07T13:23:55.092Z,952.71
2023-01-07T13:24:56.922Z,952.73
2023-01-07T13:25:55.058Z,952.66
2023-01-07T13:26:55.047Z,952.67
2023-01-07T13:27:55.032Z,952.68
2023-01-07T13:28:55.015Z,952.61
2023-01-07T13:29:55.046Z,952.60
2023-01-07T13:30:55.071Z,952.57
2023-01-07T13:31:54.987Z,952.58
2023-01-07T13:32:54.984Z,952.54
2023-01-07T13:33:54.966Z,952.50
2023-01-07T13:34:54.958Z,952.51
2023-01-07T13:35:54.946Z,952.50
2023-01-07T13:36:54.931Z,952.47
2023-01-07T13:37:54.900Z,952.51
2023-01-07T13:38:54.904Z,952.48
2023-01-07T13:39:54.873Z,952.49
2023-01-07T13:40:54.880Z,952.48
2023-01-07T13:41:54.871Z,952.42
2023-01-07T13:42:54.868Z,952.39
2023-01-07T13:43:54.831Z,952.43
2023-01-07T13:44:54.818Z,952.39
2023-01-07T13:45:54.861Z,952.40
2023-01-07T13:46:54.819Z,952.40
2023-01-07T13:47:54.772Z,952.39
2023-01-07T13:48:54.760Z,952.36
2023-01-07T13:49:56.761Z,952.36
2023-01-07T13:50:54.760Z,952.38
2023-01-07T13:51:54.804Z,952.37
2023-01-07T13:52:54.723Z,952.33
2023-01-07T13:53:54.682Z,952.31
2023-01-07T13:54:54.674Z,952.28
2023-01-07T13:55:54.720Z,952.24
2023-01-07T13:56:54.643Z,952.33
2023-01-07T13:57:54.637Z,952.31
2023-01-07T13:58:54.622Z,952.26
2023-01-07T13:59:54.590Z,952.25
2023-01-07T14:00:54.635Z,952.21
2023-01-07T14:01:54.717Z,952.26
2023-01-07T14:02:54.622Z,952.24
2023-01-07T14:03:54.540Z,952.22
2023-01-07T14:04:54.524Z,952.20
2023-01-07T14:05:55.927Z,952.17
2023-01-07T14:06:54.504Z,952.19
2023-01-07T14:07:54.509Z,952.16
2023-01-07T14:08:54.520Z,952.18
2023-01-07T14:09:54.474Z,952.18
2023-01-07T14:10:54.496Z,952.16
2023-01-07T14:11:54.484Z,952.14
2023-01-07T14:12:54.446Z,952.17
2023-01-07T14:13:54.442Z,952.11
2023-01-07T14:14:54.427Z,952.14
2023-01-07T14:15:54.535Z,952.10
2023-01-07T14:16:54.452Z,952.08
2023-01-07T14:17:54.391Z,952.08
2023-01-07T14:18:54.378Z,952.10
2023-01-07T14:19:54.385Z,952.06
2023-01-07T14:20:54.360Z,952.10
2023-01-07T14:21:54.387Z,952.05
2023-01-07T14:22:54.338Z,952.05
2023-01-07T14:23:54.324Z,952.03
2023-01-07T14:24:54.301Z,952.04
2023-01-07T14:25:54.350Z,952.05
2023-01-07T14:26:54.291Z,952.04
2023-01-07T14:27:54.271Z,952.05
2023-01-07T14:28:54.245Z,951.99
2023-01-07T14:29:59.247Z,952.07
2023-01-07T14:30:55.254Z,952.05
2023-01-07T14:31:54.191Z,952.05
2023-01-07T14:32:54.211Z,952.04
2023-01-07T14:33:54.153Z,952.08
2023-01-07T14:34:54.152Z,952.09
2023-01-07T14:35:54.166Z,952.07
2023-01-07T14:36:54.132Z,952.10
2023-01-07T14:37:54.083Z,952.10
2023-01-07T14:38:54.075Z,952.09
2023-01-07T14:39:54.044Z,952.10
2023-01-07T14:40:54.024Z,952.06
2023-01-07T14:41:54.014Z,952.05
2023-01-07T14:42:54.148Z,952.06
2023-01-07T14:43:54.019Z,952.10
2023-01-07T14:44:54.011Z,952.07
2023-01-07T14:45:53.968Z,952.10
